sensor_id;sensor_type;location;lat;lon;timestamp;P1;durP1;ratioP1;P2;durP2;ratioP2
9729;SDS011;4904;49.152;11.004;2023-01-10T00:01:57;1.50;;;1.40;;
9729;SDS011;4904;49.152;11.004;2023-01-10T00:04:24;2.00;;;1.40;;
9729;SDS011;4904;49.152;11.004;2023-01-10T00:06:52;1.60;;;1.50;;
9729;SDS011;4904;49.152;11.004;2023-01-10T00:09:19;3.47;;;1.60;;
9729;SDS011;4904;49.152;11.004;2023-01-10T00:11:46;2.88;;;1.38;;
9729;SDS011;4904;49.152;11.004;2023-01-10T00:14:35;2.07;;;1.60;;
9729;SDS011;4904;49.152;11.004;2023-01-10T00:17:04;1.60;;;1.10;;
9729;SDS011;4904;49.152;11.004;2023-01-10T00:19:30;2.60;;;1.50;;
9729;SDS011;4904;49.152;11.004;2023-01-10T00:21:58;2.53;;;1.50;;
9729;SDS011;4904;49.152;11.004;2023-01-10T00:24:37;2.13;;;1.63;;
9729;SDS011;4904;49.152;11.004;2023-01-10T00:27:06;3.07;;;1.63;;
9729;SDS011;4904;49.152;11.004;2023-01-10T00:29:38;1.75;;;1.63;;
9729;SDS011;4904;49.152;11.004;2023-01-10T00:32:06;3.80;;;1.80;;
9729;SDS011;4904;49.152;11.004;2023-01-10T00:34:33;2.05;;;1.70;;
9729;SDS011;4904;49.152;11.004;2023-01-10T00:37:00;2.60;;;1.80;;
9729;SDS011;4904;49.152;11.004;2023-01-10T00:39:27;2.20;;;1.67;;
9729;SDS011;4904;49.152;11.004;2023-01-10T00:41:55;1.02;;;1.00;;
9729;SDS011;4904;49.152;11.004;2023-01-10T00:44:39;1.75;;;1.65;;
9729;SDS011;4904;49.152;11.004;2023-01-10T00:47:08;2.10;;;1.70;;
9729;SDS011;4904;49.152;11.004;2023-01-10T00:49:35;1.80;;;1.70;;
9729;SDS011;4904;49.152;11.004;2023-01-10T00:52:01;1.80;;;1.70;;
9729;SDS011;4904;49.152;11.004;2023-01-10T00:54:29;2.55;;;1.40;;
9729;SDS011;4904;49.152;11.004;2023-01-10T00:56:56;1.50;;;1.40;;
9729;SDS011;4904;49.152;11.004;2023-01-10T00:59:23;1.10;;;1.05;;
9729;SDS011;4904;49.152;11.004;2023-01-10T01:01:50;1.10;;;1.10;;
9729;SDS011;4904;49.152;11.004;2023-01-10T01:04:18;1.42;;;1.33;;
9729;SDS011;4904;49.152;11.004;2023-01-10T01:06:45;1.73;;;1.50;;
9729;SDS011;4904;49.152;11.004;2023-01-10T01:09:14;1.60;;;1.50;;
9729;SDS011;4904;49.152;11.004;2023-01-10T01:11:42;1.50;;;1.40;;
9729;SDS011;4904;49.152;11.004;2023-01-10T01:14:08;1.27;;;1.20;;
9729;SDS011;4904;49.152;11.004;2023-01-10T01:16:35;2.40;;;1.60;;
9729;SDS011;4904;49.152;11.004;2023-01-10T01:19:02;1.70;;;1.50;;
9729;SDS011;4904;49.152;11.004;2023-01-10T01:21:30;2.17;;;1.20;;
9729;SDS011;4904;49.152;11.004;2023-01-10T01:23:57;1.40;;;1.30;;
9729;SDS011;4904;49.152;11.004;2023-01-10T01:26:24;1.20;;;1.10;;
9729;SDS011;4904;49.152;11.004;2023-01-10T01:28:51;1.13;;;1.10;;
9729;SDS011;4904;49.152;11.004;2023-01-10T01:31:18;1.30;;;1.20;;
9729;SDS011;4904;49.152;11.004;2023-01-10T01:33:45;1.33;;;1.23;;
9729;SDS011;4904;49.152;11.004;2023-01-10T01:36:12;1.60;;;1.50;;
9729;SDS011;4904;49.152;11.004;2023-01-10T01:38:40;1.13;;;1.10;;
9729;SDS011;4904;49.152;11.004;2023-01-10T01:41:07;1.75;;;1.40;;
9729;SDS011;4904;49.152;11.004;2023-01-10T01:43:58;1.40;;;1.30;;
9729;SDS011;4904;49.152;11.004;2023-01-10T01:46:27;2.80;;;1.42;;
9729;SDS011;4904;49.152;11.004;2023-01-10T01:48:54;1.47;;;1.37;;
9729;SDS011;4904;49.152;11.004;2023-01-10T01:51:21;1.30;;;1.20;;
9729;SDS011;4904;49.152;11.004;2023-01-10T01:53:55;1.67;;;1.08;;
9729;SDS011;4904;49.152;11.004;2023-01-10T01:56:26;1.30;;;1.20;;
9729;SDS011;4904;49.152;11.004;2023-01-10T01:58:57;1.57;;;1.47;;
9729;SDS011;4904;49.152;11.004;2023-01-10T02:01:26;1.87;;;1.37;;
9729;SDS011;4904;49.152;11.004;2023-01-10T02:03:56;2.20;;;1.40;;
9729;SDS011;4904;49.152;11.004;2023-01-10T02:06:26;2.80;;;1.50;;
9729;SDS011;4904;49.152;11.004;2023-01-10T02:08:56;2.40;;;1.47;;
9729;SDS011;4904;49.152;11.004;2023-01-10T02:11:28;1.17;;;1.10;;
9729;SDS011;4904;49.152;11.004;2023-01-10T02:13:55;1.37;;;1.27;;
9729;SDS011;4904;49.152;11.004;2023-01-10T02:16:24;2.67;;;1.67;;
9729;SDS011;4904;49.152;11.004;2023-01-10T02:18:51;1.83;;;1.73;;
9729;SDS011;4904;49.152;11.004;2023-01-10T02:21:31;1.63;;;1.42;;
9729;SDS011;4904;49.152;11.004;2023-01-10T02:24:24;3.10;;;1.73;;
9729;SDS011;4904;49.152;11.004;2023-01-10T02:27:19;1.60;;;1.50;;
9729;SDS011;4904;49.152;11.004;2023-01-10T02:29:55;2.20;;;2.00;;
9729;SDS011;4904;49.152;11.004;2023-01-10T02:32:37;2.15;;;1.80;;
9729;SDS011;4904;49.152;11.004;2023-01-10T02:35:09;1.35;;;1.25;;
9729;SDS011;4904;49.152;11.004;2023-01-10T02:37:50;2.92;;;1.90;;
9729;SDS011;4904;49.152;11.004;2023-01-10T02:40:25;2.37;;;2.17;;
9729;SDS011;4904;49.152;11.004;2023-01-10T02:43:00;1.90;;;1.80;;
9729;SDS011;4904;49.152;11.004;2023-01-10T02:45:35;2.80;;;2.22;;
9729;SDS011;4904;49.152;11.004;2023-01-10T02:48:07;4.95;;;2.58;;
9729;SDS011;4904;49.152;11.004;2023-01-10T02:50:42;2.63;;;2.20;;
9729;SDS011;4904;49.152;11.004;2023-01-10T02:53:24;3.33;;;2.53;;
9729;SDS011;4904;49.152;11.004;2023-01-10T02:56:00;2.30;;;2.10;;
9729;SDS011;4904;49.152;11.004;2023-01-10T03:01:52;2.60;;;2.20;;
9729;SDS011;4904;49.152;11.004;2023-01-10T03:04:27;2.50;;;2.20;;
9729;SDS011;4904;49.152;11.004;2023-01-10T03:07:04;2.50;;;2.30;;
9729;SDS011;4904;49.152;11.004;2023-01-10T03:09:39;2.60;;;1.57;;
9729;SDS011;4904;49.152;11.004;2023-01-10T03:12:19;2.37;;;2.17;;
9729;SDS011;4904;49.152;11.004;2023-01-10T03:14:48;2.40;;;2.20;;
9729;SDS011;4904;49.152;11.004;2023-01-10T03:17:16;6.53;;;2.03;;
9729;SDS011;4904;49.152;11.004;2023-01-10T03:19:48;3.30;;;1.97;;
9729;SDS011;4904;49.152;11.004;2023-01-10T03:22:17;2.60;;;2.40;;
9729;SDS011;4904;49.152;11.004;2023-01-10T03:24:45;3.40;;;2.10;;
9729;SDS011;4904;49.152;11.004;2023-01-10T03:27:17;2.38;;;2.17;;
9729;SDS011;4904;49.152;11.004;2023-01-10T03:29:49;3.47;;;2.37;;
9729;SDS011;4904;49.152;11.004;2023-01-10T03:32:22;2.70;;;2.10;;
9729;SDS011;4904;49.152;11.004;2023-01-10T03:34:54;2.60;;;2.40;;
9729;SDS011;4904;49.152;11.004;2023-01-10T03:37:23;2.70;;;2.07;;
9729;SDS011;4904;49.152;11.004;2023-01-10T03:39:57;3.75;;;2.72;;
9729;SDS011;4904;49.152;11.004;2023-01-10T03:42:33;2.33;;;1.80;;
9729;SDS011;4904;49.152;11.004;2023-01-10T03:45:20;2.17;;;2.07;;
9729;SDS011;4904;49.152;11.004;2023-01-10T03:47:52;3.45;;;2.28;;
9729;SDS011;4904;49.152;11.004;2023-01-10T03:50:22;2.72;;;2.53;;
9729;SDS011;4904;49.152;11.004;2023-01-10T03:52:50;1.73;;;1.63;;
9729;SDS011;4904;49.152;11.004;2023-01-10T03:55:18;2.63;;;2.43;;
9729;SDS011;4904;49.152;11.004;2023-01-10T03:57:47;2.75;;;2.08;;
9729;SDS011;4904;49.152;11.004;2023-01-10T04:00:14;2.22;;;2.13;;
9729;SDS011;4904;49.152;11.004;2023-01-10T04:02:41;2.33;;;2.13;;
9729;SDS011;4904;49.152;11.004;2023-01-10T04:05:08;2.27;;;2.07;;
9729;SDS011;4904;49.152;11.004;2023-01-10T04:07:36;2.43;;;2.20;;
9729;SDS011;4904;49.152;11.004;2023-01-10T04:10:04;1.98;;;1.88;;
9729;SDS011;4904;49.152;11.004;2023-01-10T04:12:32;2.23;;;2.03;;
9729;SDS011;4904;49.152;11.004;2023-01-10T04:14:58;2.10;;;1.90;;
9729;SDS011;4904;49.152;11.004;2023-01-10T04:17:27;1.52;;;1.42;;
9729;SDS011;4904;49.152;11.004;2023-01-10T04:19:54;2.00;;;1.90;;
9729;SDS011;4904;49.152;11.004;2023-01-10T04:22:20;1.23;;;1.20;;
9729;SDS011;4904;49.152;11.004;2023-01-10T04:24:49;1.70;;;1.60;;
9729;SDS011;4904;49.152;11.004;2023-01-10T04:27:16;1.70;;;1.60;;
9729;SDS011;4904;49.152;11.004;2023-01-10T04:29:43;2.13;;;1.50;;
9729;SDS011;4904;49.152;11.004;2023-01-10T04:32:10;1.67;;;1.57;;
9729;SDS011;4904;49.152;11.004;2023-01-10T04:34:37;1.13;;;1.13;;
9729;SDS011;4904;49.152;11.004;2023-01-10T04:37:04;1.42;;;1.33;;
9729;SDS011;4904;49.152;11.004;2023-01-10T04:39:30;2.67;;;1.67;;
9729;SDS011;4904;49.152;11.004;2023-01-10T04:41:59;2.40;;;1.60;;
9729;SDS011;4904;49.152;11.004;2023-01-10T04:44:25;2.27;;;1.83;;
9729;SDS011;4904;49.152;11.004;2023-01-10T04:46:52;1.65;;;1.55;;
9729;SDS011;4904;49.152;11.004;2023-01-10T04:49:19;1.67;;;1.57;;
9729;SDS011;4904;49.152;11.004;2023-01-10T04:51:46;1.42;;;1.33;;
9729;SDS011;4904;49.152;11.004;2023-01-10T04:54:13;1.53;;;1.43;;
9729;SDS011;4904;49.152;11.004;2023-01-10T04:56:40;2.00;;;1.80;;
9729;SDS011;4904;49.152;11.004;2023-01-10T04:59:08;2.60;;;1.60;;
9729;SDS011;4904;49.152;11.004;2023-01-10T05:01:35;1.73;;;1.63;;
9729;SDS011;4904;49.152;11.004;2023-01-10T05:04:03;2.85;;;2.13;;
9729;SDS011;4904;49.152;11.004;2023-01-10T05:06:31;3.10;;;2.30;;
9729;SDS011;4904;49.152;11.004;2023-01-10T05:08:58;1.90;;;1.77;;
9729;SDS011;4904;49.152;11.004;2023-01-10T05:11:25;2.43;;;2.23;;
9729;SDS011;4904;49.152;11.004;2023-01-10T05:13:52;3.50;;;2.60;;
9729;SDS011;4904;49.152;11.004;2023-01-10T05:16:20;2.90;;;2.47;;
9729;SDS011;4904;49.152;11.004;2023-01-10T05:18:49;2.92;;;2.35;;
9729;SDS011;4904;49.152;11.004;2023-01-10T05:21:16;2.90;;;2.70;;
9729;SDS011;4904;49.152;11.004;2023-01-10T05:23:43;3.17;;;2.87;;
9729;SDS011;4904;49.152;11.004;2023-01-10T05:26:11;3.17;;;2.70;;
9729;SDS011;4904;49.152;11.004;2023-01-10T05:28:39;2.85;;;2.45;;
9729;SDS011;4904;49.152;11.004;2023-01-10T05:31:06;3.50;;;3.20;;
9729;SDS011;4904;49.152;11.004;2023-01-10T05:33:35;4.03;;;2.97;;
9729;SDS011;4904;49.152;11.004;2023-01-10T05:36:02;7.70;;;3.40;;
9729;SDS011;4904;49.152;11.004;2023-01-10T05:38:30;3.17;;;2.87;;
9729;SDS011;4904;49.152;11.004;2023-01-10T05:40:58;3.67;;;3.23;;
9729;SDS011;4904;49.152;11.004;2023-01-10T05:43:25;6.73;;;3.60;;
9729;SDS011;4904;49.152;11.004;2023-01-10T05:45:52;2.67;;;2.47;;
9729;SDS011;4904;49.152;11.004;2023-01-10T05:48:19;4.43;;;2.65;;
9729;SDS011;4904;49.152;11.004;2023-01-10T05:50:49;5.07;;;3.63;;
9729;SDS011;4904;49.152;11.004;2023-01-10T05:53:16;7.67;;;3.80;;
9729;SDS011;4904;49.152;11.004;2023-01-10T05:55:43;4.40;;;3.57;;
9729;SDS011;4904;49.152;11.004;2023-01-10T05:58:17;4.27;;;3.57;;
9729;SDS011;4904;49.152;11.004;2023-01-10T06:00:43;4.25;;;3.30;;
9729;SDS011;4904;49.152;11.004;2023-01-10T06:03:10;5.57;;;3.67;;
9729;SDS011;4904;49.152;11.004;2023-01-10T06:05:37;4.63;;;3.37;;
9729;SDS011;4904;49.152;11.004;2023-01-10T06:08:05;3.97;;;2.55;;
9729;SDS011;4904;49.152;11.004;2023-01-10T06:10:32;5.53;;;2.83;;
9729;SDS011;4904;49.152;11.004;2023-01-10T06:12:59;4.87;;;3.63;;
9729;SDS011;4904;49.152;11.004;2023-01-10T06:15:26;5.20;;;3.15;;
9729;SDS011;4904;49.152;11.004;2023-01-10T06:17:53;3.40;;;3.10;;
9729;SDS011;4904;49.152;11.004;2023-01-10T06:20:20;3.70;;;2.50;;
9729;SDS011;4904;49.152;11.004;2023-01-10T06:22:46;4.77;;;2.73;;
9729;SDS011;4904;49.152;11.004;2023-01-10T06:25:15;4.23;;;3.10;;
9729;SDS011;4904;49.152;11.004;2023-01-10T06:27:42;2.83;;;2.63;;
9729;SDS011;4904;49.152;11.004;2023-01-10T06:30:10;3.30;;;2.90;;
9729;SDS011;4904;49.152;11.004;2023-01-10T06:32:38;5.27;;;2.73;;
9729;SDS011;4904;49.152;11.004;2023-01-10T06:35:06;2.95;;;2.72;;
9729;SDS011;4904;49.152;11.004;2023-01-10T06:37:34;4.03;;;2.78;;
9729;SDS011;4904;49.152;11.004;2023-01-10T06:40:01;5.03;;;3.00;;
9729;SDS011;4904;49.152;11.004;2023-01-10T06:42:29;4.53;;;2.55;;
9729;SDS011;4904;49.152;11.004;2023-01-10T06:44:56;9.15;;;2.83;;
9729;SDS011;4904;49.152;11.004;2023-01-10T06:47:23;3.30;;;2.73;;
9729;SDS011;4904;49.152;11.004;2023-01-10T06:49:50;3.80;;;2.53;;
9729;SDS011;4904;49.152;11.004;2023-01-10T06:52:17;5.10;;;3.17;;
9729;SDS011;4904;49.152;11.004;2023-01-10T06:54:43;2.60;;;2.40;;
9729;SDS011;4904;49.152;11.004;2023-01-10T06:57:10;2.67;;;2.03;;
9729;SDS011;4904;49.152;11.004;2023-01-10T06:59:39;3.47;;;2.15;;
9729;SDS011;4904;49.152;11.004;2023-01-10T07:02:05;4.33;;;2.77;;
9729;SDS011;4904;49.152;11.004;2023-01-10T07:04:34;4.20;;;2.83;;
9729;SDS011;4904;49.152;11.004;2023-01-10T07:07:01;2.33;;;1.87;;
9729;SDS011;4904;49.152;11.004;2023-01-10T07:09:28;5.40;;;2.78;;
9729;SDS011;4904;49.152;11.004;2023-01-10T07:11:55;4.78;;;2.33;;
9729;SDS011;4904;49.152;11.004;2023-01-10T07:14:22;2.90;;;2.20;;
9729;SDS011;4904;49.152;11.004;2023-01-10T07:16:50;3.40;;;2.40;;
9729;SDS011;4904;49.152;11.004;2023-01-10T07:19:17;4.18;;;2.53;;
9729;SDS011;4904;49.152;11.004;2023-01-10T07:21:44;2.65;;;2.20;;
9729;SDS011;4904;49.152;11.004;2023-01-10T07:24:11;2.28;;;1.88;;
9729;SDS011;4904;49.152;11.004;2023-01-10T07:26:38;5.97;;;2.33;;
9729;SDS011;4904;49.152;11.004;2023-01-10T07:29:05;4.33;;;2.80;;
9729;SDS011;4904;49.152;11.004;2023-01-10T07:31:32;4.93;;;2.40;;
9729;SDS011;4904;49.152;11.004;2023-01-10T07:34:00;6.07;;;3.70;;
9729;SDS011;4904;49.152;11.004;2023-01-10T07:36:26;4.82;;;2.10;;
9729;SDS011;4904;49.152;11.004;2023-01-10T07:38:53;3.00;;;2.28;;
9729;SDS011;4904;49.152;11.004;2023-01-10T07:41:20;3.47;;;2.28;;
9729;SDS011;4904;49.152;11.004;2023-01-10T07:43:47;2.63;;;2.20;;
9729;SDS011;4904;49.152;11.004;2023-01-10T07:46:14;3.55;;;2.22;;
9729;SDS011;4904;49.152;11.004;2023-01-10T07:48:41;5.23;;;2.57;;
9729;SDS011;4904;49.152;11.004;2023-01-10T07:51:11;3.73;;;2.00;;
9729;SDS011;4904;49.152;11.004;2023-01-10T07:53:38;3.03;;;2.30;;
9729;SDS011;4904;49.152;11.004;2023-01-10T07:56:05;4.50;;;2.38;;
9729;SDS011;4904;49.152;11.004;2023-01-10T07:58:32;4.33;;;2.80;;
9729;SDS011;4904;49.152;11.004;2023-01-10T08:00:59;4.93;;;2.27;;
9729;SDS011;4904;49.152;11.004;2023-01-10T08:03:28;3.93;;;2.80;;
9729;SDS011;4904;49.152;11.004;2023-01-10T08:05:57;5.70;;;2.20;;
9729;SDS011;4904;49.152;11.004;2023-01-10T08:08:26;4.20;;;3.07;;
9729;SDS011;4904;49.152;11.004;2023-01-10T08:10:53;4.95;;;2.38;;
9729;SDS011;4904;49.152;11.004;2023-01-10T08:13:20;7.55;;;2.97;;
9729;SDS011;4904;49.152;11.004;2023-01-10T08:15:47;5.35;;;2.63;;
9729;SDS011;4904;49.152;11.004;2023-01-10T08:18:16;5.10;;;2.70;;
9729;SDS011;4904;49.152;11.004;2023-01-10T08:20:43;4.45;;;2.65;;
9729;SDS011;4904;49.152;11.004;2023-01-10T08:23:12;5.00;;;2.88;;
9729;SDS011;4904;49.152;11.004;2023-01-10T08:25:40;5.68;;;2.40;;
9729;SDS011;4904;49.152;11.004;2023-01-10T08:28:07;5.75;;;2.75;;
9729;SDS011;4904;49.152;11.004;2023-01-10T08:30:34;8.10;;;3.40;;
9729;SDS011;4904;49.152;11.004;2023-01-10T08:33:01;9.30;;;2.80;;
9729;SDS011;4904;49.152;11.004;2023-01-10T08:35:28;7.47;;;3.00;;
9729;SDS011;4904;49.152;11.004;2023-01-10T08:37:56;7.53;;;2.60;;
9729;SDS011;4904;49.152;11.004;2023-01-10T08:40:24;6.23;;;2.80;;
9729;SDS011;4904;49.152;11.004;2023-01-10T08:42:56;5.30;;;2.70;;
9729;SDS011;4904;49.152;11.004;2023-01-10T08:45:24;6.73;;;2.90;;
9729;SDS011;4904;49.152;11.004;2023-01-10T08:47:50;5.83;;;2.77;;
9729;SDS011;4904;49.152;11.004;2023-01-10T08:50:18;3.28;;;2.05;;
9729;SDS011;4904;49.152;11.004;2023-01-10T08:52:45;5.78;;;2.65;;
9729;SDS011;4904;49.152;11.004;2023-01-10T08:55:12;5.63;;;2.75;;
9729;SDS011;4904;49.152;11.004;2023-01-10T08:57:39;4.57;;;2.70;;
9729;SDS011;4904;49.152;11.004;2023-01-10T09:00:09;5.72;;;2.70;;
9729;SDS011;4904;49.152;11.004;2023-01-10T09:02:38;5.55;;;2.67;;
9729;SDS011;4904;49.152;11.004;2023-01-10T09:05:05;6.28;;;2.92;;
9729;SDS011;4904;49.152;11.004;2023-01-10T09:07:33;4.95;;;2.53;;
9729;SDS011;4904;49.152;11.004;2023-01-10T09:10:00;4.73;;;2.70;;
9729;SDS011;4904;49.152;11.004;2023-01-10T09:12:27;5.77;;;3.13;;
9729;SDS011;4904;49.152;11.004;2023-01-10T09:15:13;13.67;;;9.97;;
9729;SDS011;4904;49.152;11.004;2023-01-10T09:17:40;8.57;;;3.63;;
9729;SDS011;4904;49.152;11.004;2023-01-10T09:20:07;6.63;;;3.10;;
9729;SDS011;4904;49.152;11.004;2023-01-10T09:22:36;6.55;;;3.53;;
9729;SDS011;4904;49.152;11.004;2023-01-10T09:25:04;5.93;;;4.30;;
9729;SDS011;4904;49.152;11.004;2023-01-10T09:27:32;11.48;;;8.23;;
9729;SDS011;4904;49.152;11.004;2023-01-10T09:29:59;6.80;;;3.80;;
9729;SDS011;4904;49.152;11.004;2023-01-10T09:32:27;5.00;;;3.70;;
9729;SDS011;4904;49.152;11.004;2023-01-10T09:34:54;8.33;;;5.17;;
9729;SDS011;4904;49.152;11.004;2023-01-10T09:37:21;9.90;;;3.03;;
9729;SDS011;4904;49.152;11.004;2023-01-10T09:39:48;6.57;;;2.80;;
9729;SDS011;4904;49.152;11.004;2023-01-10T09:42:23;6.90;;;3.35;;
9729;SDS011;4904;49.152;11.004;2023-01-10T09:45:02;5.78;;;2.63;;
9729;SDS011;4904;49.152;11.004;2023-01-10T09:47:41;6.53;;;2.50;;
9729;SDS011;4904;49.152;11.004;2023-01-10T09:50:15;5.25;;;2.28;;
9729;SDS011;4904;49.152;11.004;2023-01-10T09:52:46;7.15;;;2.40;;
9729;SDS011;4904;49.152;11.004;2023-01-10T09:55:19;8.52;;;2.47;;
9729;SDS011;4904;49.152;11.004;2023-01-10T09:57:50;5.97;;;2.97;;
9729;SDS011;4904;49.152;11.004;2023-01-10T10:00:20;9.65;;;2.85;;
9729;SDS011;4904;49.152;11.004;2023-01-10T10:02:51;6.13;;;2.22;;
9729;SDS011;4904;49.152;11.004;2023-01-10T10:05:19;7.68;;;3.25;;
9729;SDS011;4904;49.152;11.004;2023-01-10T10:07:50;8.32;;;3.05;;
9729;SDS011;4904;49.152;11.004;2023-01-10T10:10:21;6.53;;;3.08;;
9729;SDS011;4904;49.152;11.004;2023-01-10T10:12:56;3.77;;;2.30;;
9729;SDS011;4904;49.152;11.004;2023-01-10T10:15:31;8.07;;;2.83;;
9729;SDS011;4904;49.152;11.004;2023-01-10T10:18:12;8.25;;;2.72;;
9729;SDS011;4904;49.152;11.004;2023-01-10T10:20:50;7.75;;;2.53;;
9729;SDS011;4904;49.152;11.004;2023-01-10T10:23:36;5.10;;;2.33;;
9729;SDS011;4904;49.152;11.004;2023-01-10T10:26:12;7.10;;;2.72;;
9729;SDS011;4904;49.152;11.004;2023-01-10T10:28:51;6.10;;;2.33;;
9729;SDS011;4904;49.152;11.004;2023-01-10T10:34:36;5.77;;;2.53;;
9729;SDS011;4904;49.152;11.004;2023-01-10T10:37:08;6.70;;;2.17;;
9729;SDS011;4904;49.152;11.004;2023-01-10T10:39:41;7.17;;;2.57;;
9729;SDS011;4904;49.152;11.004;2023-01-10T10:42:11;6.20;;;2.40;;
9729;SDS011;4904;49.152;11.004;2023-01-10T10:44:42;9.03;;;2.67;;
9729;SDS011;4904;49.152;11.004;2023-01-10T10:47:13;7.23;;;3.20;;
9729;SDS011;4904;49.152;11.004;2023-01-10T10:49:44;9.23;;;2.40;;
9729;SDS011;4904;49.152;11.004;2023-01-10T10:52:18;9.48;;;2.20;;
9729;SDS011;4904;49.152;11.004;2023-01-10T10:54:48;5.28;;;2.13;;
9729;SDS011;4904;49.152;11.004;2023-01-10T10:57:16;3.30;;;1.63;;
9729;SDS011;4904;49.152;11.004;2023-01-10T10:59:45;12.52;;;2.47;;
9729;SDS011;4904;49.152;11.004;2023-01-10T11:02:21;5.97;;;2.37;;
9729;SDS011;4904;49.152;11.004;2023-01-10T11:04:52;5.22;;;1.95;;
9729;SDS011;4904;49.152;11.004;2023-01-10T11:07:22;9.87;;;2.63;;
9729;SDS011;4904;49.152;11.004;2023-01-10T11:09:51;7.27;;;2.07;;
9729;SDS011;4904;49.152;11.004;2023-01-10T11:12:22;2.47;;;1.60;;
9729;SDS011;4904;49.152;11.004;2023-01-10T11:14:53;6.77;;;2.67;;
9729;SDS011;4904;49.152;11.004;2023-01-10T11:17:21;3.43;;;1.80;;
9729;SDS011;4904;49.152;11.004;2023-01-10T11:19:58;6.10;;;1.83;;
9729;SDS011;4904;49.152;11.004;2023-01-10T11:22:26;6.43;;;2.03;;
9729;SDS011;4904;49.152;11.004;2023-01-10T11:24:57;6.87;;;2.10;;
9729;SDS011;4904;49.152;11.004;2023-01-10T11:27:26;3.93;;;2.00;;
9729;SDS011;4904;49.152;11.004;2023-01-10T11:29:55;7.03;;;2.00;;
9729;SDS011;4904;49.152;11.004;2023-01-10T11:32:29;7.75;;;3.00;;
9729;SDS011;4904;49.152;11.004;2023-01-10T11:35:00;5.73;;;2.23;;
9729;SDS011;4904;49.152;11.004;2023-01-10T11:37:32;4.27;;;2.03;;
9729;SDS011;4904;49.152;11.004;2023-01-10T11:40:08;6.67;;;2.10;;
9729;SDS011;4904;49.152;11.004;2023-01-10T11:42:41;8.80;;;2.90;;
9729;SDS011;4904;49.152;11.004;2023-01-10T11:45:21;7.30;;;2.30;;
9729;SDS011;4904;49.152;11.004;2023-01-10T11:47:51;4.00;;;2.23;;
9729;SDS011;4904;49.152;11.004;2023-01-10T11:50:24;8.03;;;2.67;;
9729;SDS011;4904;49.152;11.004;2023-01-10T11:52:52;6.93;;;2.70;;
9729;SDS011;4904;49.152;11.004;2023-01-10T11:55:20;5.32;;;2.13;;
9729;SDS011;4904;49.152;11.004;2023-01-10T11:57:56;6.80;;;1.90;;
9729;SDS011;4904;49.152;11.004;2023-01-10T12:00:30;8.93;;;2.77;;
9729;SDS011;4904;49.152;11.004;2023-01-10T12:02:59;3.43;;;1.53;;
9729;SDS011;4904;49.152;11.004;2023-01-10T12:05:27;7.70;;;2.77;;
9729;SDS011;4904;49.152;11.004;2023-01-10T12:07:56;6.03;;;2.50;;
9729;SDS011;4904;49.152;11.004;2023-01-10T12:10:26;6.17;;;2.27;;
9729;SDS011;4904;49.152;11.004;2023-01-10T12:12:54;10.55;;;2.65;;
9729;SDS011;4904;49.152;11.004;2023-01-10T12:15:23;4.95;;;2.28;;
9729;SDS011;4904;49.152;11.004;2023-01-10T12:17:52;6.63;;;2.10;;
9729;SDS011;4904;49.152;11.004;2023-01-10T12:20:20;5.77;;;1.93;;
9729;SDS011;4904;49.152;11.004;2023-01-10T12:22:50;9.73;;;2.83;;
9729;SDS011;4904;49.152;11.004;2023-01-10T12:25:21;9.88;;;2.50;;
9729;SDS011;4904;49.152;11.004;2023-01-10T12:27:52;7.77;;;2.40;;
9729;SDS011;4904;49.152;11.004;2023-01-10T12:30:23;7.88;;;2.42;;
9729;SDS011;4904;49.152;11.004;2023-01-10T12:32:57;5.27;;;2.33;;
9729;SDS011;4904;49.152;11.004;2023-01-10T12:35:36;10.70;;;2.87;;
9729;SDS011;4904;49.152;11.004;2023-01-10T12:38:13;7.17;;;2.50;;
9729;SDS011;4904;49.152;11.004;2023-01-10T12:40:50;8.90;;;2.42;;
9729;SDS011;4904;49.152;11.004;2023-01-10T12:43:20;4.70;;;2.07;;
9729;SDS011;4904;49.152;11.004;2023-01-10T12:46:13;7.93;;;2.70;;
9729;SDS011;4904;49.152;11.004;2023-01-10T12:48:46;9.10;;;2.20;;
9729;SDS011;4904;49.152;11.004;2023-01-10T12:51:22;5.87;;;2.27;;
9729;SDS011;4904;49.152;11.004;2023-01-10T12:53:55;9.23;;;2.50;;
9729;SDS011;4904;49.152;11.004;2023-01-10T12:56:25;5.90;;;2.33;;
9729;SDS011;4904;49.152;11.004;2023-01-10T12:58:54;10.65;;;2.70;;
9729;SDS011;4904;49.152;11.004;2023-01-10T13:01:26;8.45;;;2.33;;
9729;SDS011;4904;49.152;11.004;2023-01-10T13:03:57;7.32;;;2.50;;
9729;SDS011;4904;49.152;11.004;2023-01-10T13:06:29;6.32;;;2.38;;
9729;SDS011;4904;49.152;11.004;2023-01-10T13:09:01;9.73;;;2.63;;
9729;SDS011;4904;49.152;11.004;2023-01-10T13:11:32;5.70;;;2.63;;
9729;SDS011;4904;49.152;11.004;2023-01-10T13:14:05;4.97;;;2.15;;
9729;SDS011;4904;49.152;11.004;2023-01-10T13:16:41;6.93;;;1.80;;
9729;SDS011;4904;49.152;11.004;2023-01-10T13:19:22;6.28;;;1.67;;
9729;SDS011;4904;49.152;11.004;2023-01-10T13:21:51;8.80;;;2.20;;
9729;SDS011;4904;49.152;11.004;2023-01-10T13:24:43;6.20;;;1.90;;
9729;SDS011;4904;49.152;11.004;2023-01-10T13:27:20;5.63;;;1.95;;
9729;SDS011;4904;49.152;11.004;2023-01-10T13:29:48;5.53;;;2.03;;
9729;SDS011;4904;49.152;11.004;2023-01-10T13:32:18;7.55;;;2.30;;
9729;SDS011;4904;49.152;11.004;2023-01-10T13:34:48;6.40;;;2.40;;
9729;SDS011;4904;49.152;11.004;2023-01-10T13:37:20;4.22;;;1.80;;
9729;SDS011;4904;49.152;11.004;2023-01-10T13:39:51;8.50;;;2.17;;
9729;SDS011;4904;49.152;11.004;2023-01-10T13:42:22;5.90;;;2.40;;
9729;SDS011;4904;49.152;11.004;2023-01-10T13:45:15;6.28;;;1.95;;
9729;SDS011;4904;49.152;11.004;2023-01-10T13:48:02;5.70;;;2.38;;
9729;SDS011;4904;49.152;11.004;2023-01-10T13:50:49;5.95;;;2.00;;
9729;SDS011;4904;49.152;11.004;2023-01-10T13:53:41;5.17;;;2.37;;
9729;SDS011;4904;49.152;11.004;2023-01-10T13:56:28;8.03;;;2.40;;
9729;SDS011;4904;49.152;11.004;2023-01-10T13:59:01;4.57;;;1.83;;
9729;SDS011;4904;49.152;11.004;2023-01-10T14:01:50;2.85;;;1.60;;
9729;SDS011;4904;49.152;11.004;2023-01-10T14:04:36;3.92;;;1.77;;
9729;SDS011;4904;49.152;11.004;2023-01-10T14:07:05;4.77;;;1.80;;
9729;SDS011;4904;49.152;11.004;2023-01-10T14:09:42;4.40;;;1.77;;
9729;SDS011;4904;49.152;11.004;2023-01-10T14:12:20;6.93;;;2.05;;
9729;SDS011;4904;49.152;11.004;2023-01-10T14:14:52;6.03;;;2.13;;
9729;SDS011;4904;49.152;11.004;2023-01-10T14:17:23;6.47;;;2.30;;
9729;SDS011;4904;49.152;11.004;2023-01-10T14:22:45;7.77;;;2.53;;
9729;SDS011;4904;49.152;11.004;2023-01-10T14:25:23;5.83;;;1.70;;
9729;SDS011;4904;49.152;11.004;2023-01-10T14:27:54;7.07;;;2.00;;
9729;SDS011;4904;49.152;11.004;2023-01-10T14:30:23;6.20;;;2.20;;
9729;SDS011;4904;49.152;11.004;2023-01-10T14:32:53;5.60;;;2.00;;
9729;SDS011;4904;49.152;11.004;2023-01-10T14:35:23;5.30;;;1.95;;
9729;SDS011;4904;49.152;11.004;2023-01-10T14:37:53;3.55;;;1.80;;
9729;SDS011;4904;49.152;11.004;2023-01-10T14:40:25;6.32;;;2.25;;
9729;SDS011;4904;49.152;11.004;2023-01-10T14:43:00;3.43;;;1.80;;
9729;SDS011;4904;49.152;11.004;2023-01-10T14:45:35;4.50;;;1.77;;
9729;SDS011;4904;49.152;11.004;2023-01-10T14:51:05;3.60;;;2.00;;
9729;SDS011;4904;49.152;11.004;2023-01-10T14:53:54;5.03;;;2.10;;
9729;SDS011;4904;49.152;11.004;2023-01-10T14:56:23;6.43;;;1.77;;
9729;SDS011;4904;49.152;11.004;2023-01-10T14:58:53;6.78;;;2.10;;
9729;SDS011;4904;49.152;11.004;2023-01-10T15:01:21;5.37;;;1.93;;
9729;SDS011;4904;49.152;11.004;2023-01-10T15:03:51;5.53;;;1.90;;
9729;SDS011;4904;49.152;11.004;2023-01-10T15:06:19;6.22;;;1.95;;
9729;SDS011;4904;49.152;11.004;2023-01-10T15:08:53;4.23;;;2.17;;
9729;SDS011;4904;49.152;11.004;2023-01-10T15:11:22;5.37;;;1.90;;
9729;SDS011;4904;49.152;11.004;2023-01-10T15:13:52;4.47;;;2.00;;
9729;SDS011;4904;49.152;11.004;2023-01-10T15:16:24;4.97;;;2.03;;
9729;SDS011;4904;49.152;11.004;2023-01-10T15:18:52;5.15;;;1.70;;
9729;SDS011;4904;49.152;11.004;2023-01-10T15:21:22;5.47;;;1.80;;
9729;SDS011;4904;49.152;11.004;2023-01-10T15:23:50;7.32;;;1.75;;
9729;SDS011;4904;49.152;11.004;2023-01-10T15:26:18;4.33;;;1.90;;
9729;SDS011;4904;49.152;11.004;2023-01-10T15:28:48;4.97;;;1.70;;
9729;SDS011;4904;49.152;11.004;2023-01-10T15:31:33;7.50;;;2.07;;
9729;SDS011;4904;49.152;11.004;2023-01-10T15:34:05;5.70;;;2.20;;